sensor_id;sensor_type;location;lat;lon;timestamp;temperature;humidity
23683;DHT22;24897;53.514;10.482;2023-04-24T00:02:31;12.80;99.90
23683;DHT22;24897;53.514;10.482;2023-04-24T00:05:17;12.90;99.90
23683;DHT22;24897;53.514;10.482;2023-04-24T00:08:01;12.80;99.90
23683;DHT22;24897;53.514;10.482;2023-04-24T00:10:46;12.80;99.90
23683;DHT22;24897;53.514;10.482;2023-04-24T00:13:30;12.90;99.90
23683;DHT22;24897;53.514;10.482;2023-04-24T00:16:14;12.90;99.90
23683;DHT22;24897;53.514;10.482;2023-04-24T00:18:58;12.90;99.90
23683;DHT22;24897;53.514;10.482;2023-04-24T00:21:44;12.60;99.90
23683;DHT22;24897;53.514;10.482;2023-04-24T00:24:28;12.70;99.90
23683;DHT22;24897;53.514;10.482;2023-04-24T00:27:13;12.70;99.90
23683;DHT22;24897;53.514;10.482;2023-04-24T00:29:57;12.60;99.90
23683;DHT22;24897;53.514;10.482;2023-04-24T00:32:41;12.60;99.90
23683;DHT22;24897;53.514;10.482;2023-04-24T00:35:25;12.60;99.90
23683;DHT22;24897;53.514;10.482;2023-04-24T00:38:09;12.60;99.90
23683;DHT22;24897;53.514;10.482;2023-04-24T00:40:54;12.70;99.90
23683;DHT22;24897;53.514;10.482;2023-04-24T00:43:39;12.70;99.90
23683;DHT22;24897;53.514;10.482;2023-04-24T00:46:23;12.70;99.90
23683;DHT22;24897;53.514;10.482;2023-04-24T00:49:07;12.70;99.90
23683;DHT22;24897;53.514;10.482;2023-04-24T00:51:52;12.70;99.90
23683;DHT22;24897;53.514;10.482;2023-04-24T00:54:38;12.70;99.90
23683;DHT22;24897;53.514;10.482;2023-04-24T00:57:22;12.70;99.90
23683;DHT22;24897;53.514;10.482;2023-04-24T01:00:08;12.70;99.90
23683;DHT22;24897;53.514;10.482;2023-04-24T01:02:56;12.80;99.90
23683;DHT22;24897;53.514;10.482;2023-04-24T01:05:42;12.80;99.90
23683;DHT22;24897;53.514;10.482;2023-04-24T01:08:27;12.80;99.90
23683;DHT22;24897;53.514;10.482;2023-04-24T01:11:12;12.80;99.90
23683;DHT22;24897;53.514;10.482;2023-04-24T01:13:56;12.80;99.90
23683;DHT22;24897;53.514;10.482;2023-04-24T01:16:40;12.80;99.90
23683;DHT22;24897;53.514;10.482;2023-04-24T01:19:25;12.90;99.90
23683;DHT22;24897;53.514;10.482;2023-04-24T01:22:14;12.80;99.90
23683;DHT22;24897;53.514;10.482;2023-04-24T01:24:58;12.90;99.90
23683;DHT22;24897;53.514;10.482;2023-04-24T01:27:42;12.90;99.90
23683;DHT22;24897;53.514;10.482;2023-04-24T01:30:27;12.90;99.90
23683;DHT22;24897;53.514;10.482;2023-04-24T01:33:12;13.00;99.90
23683;DHT22;24897;53.514;10.482;2023-04-24T01:35:56;12.90;99.90
23683;DHT22;24897;53.514;10.482;2023-04-24T01:38:41;12.90;99.90
23683;DHT22;24897;53.514;10.482;2023-04-24T01:41:26;12.90;99.90
23683;DHT22;24897;53.514;10.482;2023-04-24T01:44:10;12.90;99.90
23683;DHT22;24897;53.514;10.482;2023-04-24T01:46:55;12.90;99.90
23683;DHT22;24897;53.514;10.482;2023-04-24T01:49:39;12.80;99.90
23683;DHT22;24897;53.514;10.482;2023-04-24T01:52:23;12.90;99.90
23683;DHT22;24897;53.514;10.482;2023-04-24T01:55:09;12.80;99.90
23683;DHT22;24897;53.514;10.482;2023-04-24T01:57:55;12.80;99.90
23683;DHT22;24897;53.514;10.482;2023-04-24T02:00:40;12.80;99.90
23683;DHT22;24897;53.514;10.482;2023-04-24T02:03:24;12.80;99.90
23683;DHT22;24897;53.514;10.482;2023-04-24T02:06:09;12.80;99.90
23683;DHT22;24897;53.514;10.482;2023-04-24T02:08:53;12.70;99.90
23683;DHT22;24897;53.514;10.482;2023-04-24T02:11:38;12.70;99.90
23683;DHT22;24897;53.514;10.482;2023-04-24T02:14:22;12.60;99.90
23683;DHT22;24897;53.514;10.482;2023-04-24T02:17:06;12.60;99.90
23683;DHT22;24897;53.514;10.482;2023-04-24T02:19:50;12.50;99.90
23683;DHT22;24897;53.514;10.482;2023-04-24T02:22:34;12.50;99.90
23683;DHT22;24897;53.514;10.482;2023-04-24T02:25:19;12.40;99.90
23683;DHT22;24897;53.514;10.482;2023-04-24T02:28:03;12.40;99.90
23683;DHT22;24897;53.514;10.482;2023-04-24T02:30:47;12.40;99.90
23683;DHT22;24897;53.514;10.482;2023-04-24T02:33:31;12.40;99.90
23683;DHT22;24897;53.514;10.482;2023-04-24T02:36:15;12.40;99.90
23683;DHT22;24897;53.514;10.482;2023-04-24T02:39:00;12.40;99.90
23683;DHT22;24897;53.514;10.482;2023-04-24T02:41:45;12.40;99.90
23683;DHT22;24897;53.514;10.482;2023-04-24T02:44:29;12.40;99.90
23683;DHT22;24897;53.514;10.482;2023-04-24T02:47:14;12.40;99.90
23683;DHT22;24897;53.514;10.482;2023-04-24T02:49:58;12.30;99.90
23683;DHT22;24897;53.514;10.482;2023-04-24T02:52:42;12.30;99.90
23683;DHT22;24897;53.514;10.482;2023-04-24T02:55:26;12.30;99.90
23683;DHT22;24897;53.514;10.482;2023-04-24T02:58:10;12.30;99.90
23683;DHT22;24897;53.514;10.482;2023-04-24T03:00:56;12.30;99.90
23683;DHT22;24897;53.514;10.482;2023-04-24T03:03:40;12.20;99.90
23683;DHT22;24897;53.514;10.482;2023-04-24T03:06:24;12.20;99.90
23683;DHT22;24897;53.514;10.482;2023-04-24T03:09:08;12.20;99.90
23683;DHT22;24897;53.514;10.482;2023-04-24T03:11:53;12.20;99.90
23683;DHT22;24897;53.514;10.482;2023-04-24T03:14:38;12.30;99.90
23683;DHT22;24897;53.514;10.482;2023-04-24T03:17:22;12.20;99.90
23683;DHT22;24897;53.514;10.482;2023-04-24T03:20:07;12.20;99.90
23683;DHT22;24897;53.514;10.482;2023-04-24T03:22:52;12.20;99.90
23683;DHT22;24897;53.514;10.482;2023-04-24T03:25:36;12.30;99.90
23683;DHT22;24897;53.514;10.482;2023-04-24T03:28:20;12.30;99.90
23683;DHT22;24897;53.514;10.482;2023-04-24T03:31:04;12.20;99.90
23683;DHT22;24897;53.514;10.482;2023-04-24T03:33:48;12.20;99.90
23683;DHT22;24897;53.514;10.482;2023-04-24T03:36:35;12.10;99.90
23683;DHT22;24897;53.514;10.482;2023-04-24T03:39:19;12.10;99.90
23683;DHT22;24897;53.514;10.482;2023-04-24T03:42:03;12.10;99.90
23683;DHT22;24897;53.514;10.482;2023-04-24T03:44:47;12.00;99.90
23683;DHT22;24897;53.514;10.482;2023-04-24T03:47:32;11.90;99.90
23683;DHT22;24897;53.514;10.482;2023-04-24T03:50:16;11.90;99.90
23683;DHT22;24897;53.514;10.482;2023-04-24T03:53:00;11.90;99.90
23683;DHT22;24897;53.514;10.482;2023-04-24T03:55:44;11.80;99.90
23683;DHT22;24897;53.514;10.482;2023-04-24T03:58:29;11.80;99.90
23683;DHT22;24897;53.514;10.482;2023-04-24T04:01:16;11.70;99.90
23683;DHT22;24897;53.514;10.482;2023-04-24T04:04:00;11.30;99.90
23683;DHT22;24897;53.514;10.482;2023-04-24T04:06:44;11.60;99.90
23683;DHT22;24897;53.514;10.482;2023-04-24T04:09:30;11.70;99.90
23683;DHT22;24897;53.514;10.482;2023-04-24T04:12:14;11.60;99.90
23683;DHT22;24897;53.514;10.482;2023-04-24T04:14:58;11.50;99.90
23683;DHT22;24897;53.514;10.482;2023-04-24T04:17:42;11.50;99.90
23683;DHT22;24897;53.514;10.482;2023-04-24T04:20:27;11.50;99.90
23683;DHT22;24897;53.514;10.482;2023-04-24T04:23:11;11.40;99.90
23683;DHT22;24897;53.514;10.482;2023-04-24T04:25:55;11.40;99.90
23683;DHT22;24897;53.514;10.482;2023-04-24T04:28:39;14.60;99.90
23683;DHT22;24897;53.514;10.482;2023-04-24T04:31:25;11.40;99.90
23683;DHT22;24897;53.514;10.482;2023-04-24T04:34:09;11.40;99.90
23683;DHT22;24897;53.514;10.482;2023-04-24T04:36:54;11.30;99.90
23683;DHT22;24897;53.514;10.482;2023-04-24T04:39:38;11.30;99.90
23683;DHT22;24897;53.514;10.482;2023-04-24T04:42:22;11.30;99.90
23683;DHT22;24897;53.514;10.482;2023-04-24T04:45:08;11.40;99.90
23683;DHT22;24897;53.514;10.482;2023-04-24T04:47:52;11.70;99.90
23683;DHT22;24897;53.514;10.482;2023-04-24T04:50:36;11.70;99.90
23683;DHT22;24897;53.514;10.482;2023-04-24T04:53:20;11.80;99.90
23683;DHT22;24897;53.514;10.482;2023-04-24T04:56:05;11.80;99.90
23683;DHT22;24897;53.514;10.482;2023-04-24T04:58:49;11.80;99.90
23683;DHT22;24897;53.514;10.482;2023-04-24T05:01:34;12.70;99.90
23683;DHT22;24897;53.514;10.482;2023-04-24T05:04:18;12.90;99.90
23683;DHT22;24897;53.514;10.482;2023-04-24T05:07:03;13.80;99.90
23683;DHT22;24897;53.514;10.482;2023-04-24T05:09:47;14.70;99.90
23683;DHT22;24897;53.514;10.482;2023-04-24T05:12:31;15.30;99.90
23683;DHT22;24897;53.514;10.482;2023-04-24T05:15:16;15.80;99.90
23683;DHT22;24897;53.514;10.482;2023-04-24T05:18:00;16.00;99.90
23683;DHT22;24897;53.514;10.482;2023-04-24T05:20:44;16.20;99.90
23683;DHT22;24897;53.514;10.482;2023-04-24T05:23:28;16.40;99.90
23683;DHT22;24897;53.514;10.482;2023-04-24T05:26:13;16.40;99.90
23683;DHT22;24897;53.514;10.482;2023-04-24T05:28:59;16.40;99.90
23683;DHT22;24897;53.514;10.482;2023-04-24T05:31:44;16.10;99.90
23683;DHT22;24897;53.514;10.482;2023-04-24T05:34:28;16.00;99.90
23683;DHT22;24897;53.514;10.482;2023-04-24T05:37:12;15.60;99.90
23683;DHT22;24897;53.514;10.482;2023-04-24T05:39:57;15.40;99.90
23683;DHT22;24897;53.514;10.482;2023-04-24T05:42:41;14.80;99.90
23683;DHT22;24897;53.514;10.482;2023-04-24T05:45:26;13.70;99.90
23683;DHT22;24897;53.514;10.482;2023-04-24T05:48:11;13.70;99.90
23683;DHT22;24897;53.514;10.482;2023-04-24T05:50:55;13.50;99.90
23683;DHT22;24897;53.514;10.482;2023-04-24T05:53:39;13.40;99.90
23683;DHT22;24897;53.514;10.482;2023-04-24T05:56:23;13.40;99.90
23683;DHT22;24897;53.514;10.482;2023-04-24T05:59:08;13.40;99.90
23683;DHT22;24897;53.514;10.482;2023-04-24T06:01:52;13.50;99.90
23683;DHT22;24897;53.514;10.482;2023-04-24T06:04:36;13.40;99.90
23683;DHT22;24897;53.514;10.482;2023-04-24T06:07:20;13.40;99.90
23683;DHT22;24897;53.514;10.482;2023-04-24T06:10:05;13.40;99.90
23683;DHT22;24897;53.514;10.482;2023-04-24T06:12:50;13.60;99.90
23683;DHT22;24897;53.514;10.482;2023-04-24T06:15:34;13.60;99.90
23683;DHT22;24897;53.514;10.482;2023-04-24T06:18:19;13.50;99.90
23683;DHT22;24897;53.514;10.482;2023-04-24T06:21:03;13.30;99.90
23683;DHT22;24897;53.514;10.482;2023-04-24T06:23:48;13.40;99.90
23683;DHT22;24897;53.514;10.482;2023-04-24T06:26:33;13.40;99.90
23683;DHT22;24897;53.514;10.482;2023-04-24T06:29:17;13.50;99.90
23683;DHT22;24897;53.514;10.482;2023-04-24T06:32:02;13.50;99.90
23683;DHT22;24897;53.514;10.482;2023-04-24T06:34:46;13.40;99.90
23683;DHT22;24897;53.514;10.482;2023-04-24T06:37:30;13.50;99.90
23683;DHT22;24897;53.514;10.482;2023-04-24T06:40:14;13.50;99.90
23683;DHT22;24897;53.514;10.482;2023-04-24T06:42:58;13.50;99.90
23683;DHT22;24897;53.514;10.482;2023-04-24T06:45:44;13.40;99.90
23683;DHT22;24897;53.514;10.482;2023-04-24T06:48:29;13.50;99.90
23683;DHT22;24897;53.514;10.482;2023-04-24T06:51:13;13.50;99.90
23683;DHT22;24897;53.514;10.482;2023-04-24T06:53:57;13.70;99.90
23683;DHT22;24897;53.514;10.482;2023-04-24T06:56:42;13.60;99.90
23683;DHT22;24897;53.514;10.482;2023-04-24T06:59:31;13.70;99.90
23683;DHT22;24897;53.514;10.482;2023-04-24T07:02:15;14.00;99.90
23683;DHT22;24897;53.514;10.482;2023-04-24T07:04:59;13.90;99.90
23683;DHT22;24897;53.514;10.482;2023-04-24T07:07:47;13.90;99.90
23683;DHT22;24897;53.514;10.482;2023-04-24T07:10:31;14.00;99.90
23683;DHT22;24897;53.514;10.482;2023-04-24T07:13:17;14.00;99.90
23683;DHT22;24897;53.514;10.482;2023-04-24T07:16:02;13.80;99.90
23683;DHT22;24897;53.514;10.482;2023-04-24T07:18:46;13.90;99.90
23683;DHT22;24897;53.514;10.482;2023-04-24T07:21:30;14.10;99.90
23683;DHT22;24897;53.514;10.482;2023-04-24T07:24:15;14.00;99.90
23683;DHT22;24897;53.514;10.482;2023-04-24T07:27:00;14.00;99.90
23683;DHT22;24897;53.514;10.482;2023-04-24T07:29:47;14.00;99.90
23683;DHT22;24897;53.514;10.482;2023-04-24T07:32:31;14.10;99.90
23683;DHT22;24897;53.514;10.482;2023-04-24T07:35:16;14.30;99.90
23683;DHT22;24897;53.514;10.482;2023-04-24T07:38:00;14.70;99.90
23683;DHT22;24897;53.514;10.482;2023-04-24T07:40:44;15.00;99.90
23683;DHT22;24897;53.514;10.482;2023-04-24T07:43:28;15.30;99.90
23683;DHT22;24897;53.514;10.482;2023-04-24T07:46:12;15.60;99.90
23683;DHT22;24897;53.514;10.482;2023-04-24T07:48:56;16.10;99.90
23683;DHT22;24897;53.514;10.482;2023-04-24T07:51:41;16.80;99.90
23683;DHT22;24897;53.514;10.482;2023-04-24T07:54:25;16.70;99.90
23683;DHT22;24897;53.514;10.482;2023-04-24T07:57:10;16.40;99.90
23683;DHT22;24897;53.514;10.482;2023-04-24T07:59:54;15.90;99.90
23683;DHT22;24897;53.514;10.482;2023-04-24T08:02:39;15.70;99.90
23683;DHT22;24897;53.514;10.482;2023-04-24T08:05:23;15.90;99.90
23683;DHT22;24897;53.514;10.482;2023-04-24T08:08:09;15.80;99.90
23683;DHT22;24897;53.514;10.482;2023-04-24T08:10:53;15.20;99.90
23683;DHT22;24897;53.514;10.482;2023-04-24T08:13:38;15.10;99.90
23683;DHT22;24897;53.514;10.482;2023-04-24T08:16:25;15.60;99.90
23683;DHT22;24897;53.514;10.482;2023-04-24T08:19:09;15.70;99.90
23683;DHT22;24897;53.514;10.482;2023-04-24T08:21:53;16.10;99.90
23683;DHT22;24897;53.514;10.482;2023-04-24T08:24:38;16.10;99.90
23683;DHT22;24897;53.514;10.482;2023-04-24T08:27:26;15.80;99.90
23683;DHT22;24897;53.514;10.482;2023-04-24T08:30:11;15.20;99.90
23683;DHT22;24897;53.514;10.482;2023-04-24T08:32:56;15.50;99.90
23683;DHT22;24897;53.514;10.482;2023-04-24T08:35:40;15.60;99.90
23683;DHT22;24897;53.514;10.482;2023-04-24T08:38:25;15.50;99.90
23683;DHT22;24897;53.514;10.482;2023-04-24T08:41:09;15.80;99.90
23683;DHT22;24897;53.514;10.482;2023-04-24T08:43:55;15.90;99.90
23683;DHT22;24897;53.514;10.482;2023-04-24T08:46:43;15.30;99.90
23683;DHT22;24897;53.514;10.482;2023-04-24T08:49:31;15.30;99.90
23683;DHT22;24897;53.514;10.482;2023-04-24T08:52:15;15.80;99.90
23683;DHT22;24897;53.514;10.482;2023-04-24T08:55:01;15.70;99.90
23683;DHT22;24897;53.514;10.482;2023-04-24T08:57:49;15.70;99.90
23683;DHT22;24897;53.514;10.482;2023-04-24T09:00:33;15.80;99.90
23683;DHT22;24897;53.514;10.482;2023-04-24T09:03:18;16.00;99.90
23683;DHT22;24897;53.514;10.482;2023-04-24T09:06:03;16.20;99.90
23683;DHT22;24897;53.514;10.482;2023-04-24T09:08:49;16.70;99.90
23683;DHT22;24897;53.514;10.482;2023-04-24T09:11:34;16.80;99.90
23683;DHT22;24897;53.514;10.482;2023-04-24T09:14:20;16.40;99.90
23683;DHT22;24897;53.514;10.482;2023-04-24T09:17:05;15.70;99.90
23683;DHT22;24897;53.514;10.482;2023-04-24T09:19:50;15.40;99.90
23683;DHT22;24897;53.514;10.482;2023-04-24T09:22:34;15.10;99.90
23683;DHT22;24897;53.514;10.482;2023-04-24T09:25:18;15.00;99.90
23683;DHT22;24897;53.514;10.482;2023-04-24T09:28:04;15.70;99.90
23683;DHT22;24897;53.514;10.482;2023-04-24T09:31:02;15.90;99.90
23683;DHT22;24897;53.514;10.482;2023-04-24T09:33:58;16.20;99.90
23683;DHT22;24897;53.514;10.482;2023-04-24T09:36:43;16.10;99.90
23683;DHT22;24897;53.514;10.482;2023-04-24T09:39:27;15.20;99.90
23683;DHT22;24897;53.514;10.482;2023-04-24T09:42:11;15.20;99.90
23683;DHT22;24897;53.514;10.482;2023-04-24T09:44:55;15.50;99.90
23683;DHT22;24897;53.514;10.482;2023-04-24T09:47:40;15.50;99.90
23683;DHT22;24897;53.514;10.482;2023-04-24T09:50:24;15.10;99.90
23683;DHT22;24897;53.514;10.482;2023-04-24T09:53:09;14.80;99.90
23683;DHT22;24897;53.514;10.482;2023-04-24T09:55:54;14.90;99.90
23683;DHT22;24897;53.514;10.482;2023-04-24T09:58:39;14.90;99.90
23683;DHT22;24897;53.514;10.482;2023-04-24T10:01:31;15.00;99.90
23683;DHT22;24897;53.514;10.482;2023-04-24T10:04:21;14.80;99.90
23683;DHT22;24897;53.514;10.482;2023-04-24T10:07:05;15.00;99.90
23683;DHT22;24897;53.514;10.482;2023-04-24T10:09:50;15.30;99.90
23683;DHT22;24897;53.514;10.482;2023-04-24T10:12:34;15.90;99.90
23683;DHT22;24897;53.514;10.482;2023-04-24T10:15:20;16.30;99.90
23683;DHT22;24897;53.514;10.482;2023-04-24T10:18:05;16.10;99.90
23683;DHT22;24897;53.514;10.482;2023-04-24T10:20:53;15.30;99.90
23683;DHT22;24897;53.514;10.482;2023-04-24T10:23:39;14.80;99.90
23683;DHT22;24897;53.514;10.482;2023-04-24T10:26:26;14.70;99.90
23683;DHT22;24897;53.514;10.482;2023-04-24T10:29:13;15.20;99.90
23683;DHT22;24897;53.514;10.482;2023-04-24T10:31:57;15.90;99.90
23683;DHT22;24897;53.514;10.482;2023-04-24T10:34:41;15.40;99.90
23683;DHT22;24897;53.514;10.482;2023-04-24T10:37:26;15.30;99.90
23683;DHT22;24897;53.514;10.482;2023-04-24T10:40:12;15.10;99.90
23683;DHT22;24897;53.514;10.482;2023-04-24T10:43:02;15.70;99.90
23683;DHT22;24897;53.514;10.482;2023-04-24T10:46:04;16.10;99.90
23683;DHT22;24897;53.514;10.482;2023-04-24T10:48:54;16.70;99.90
23683;DHT22;24897;53.514;10.482;2023-04-24T10:51:49;16.50;99.90
23683;DHT22;24897;53.514;10.482;2023-04-24T11:00:25;15.50;99.90
23683;DHT22;24897;53.514;10.482;2023-04-24T11:03:28;16.00;99.90
23683;DHT22;24897;53.514;10.482;2023-04-24T11:06:13;16.40;99.90
23683;DHT22;24897;53.514;10.482;2023-04-24T11:09:08;16.40;99.90
23683;DHT22;24897;53.514;10.482;2023-04-24T11:12:03;15.90;99.90
23683;DHT22;24897;53.514;10.482;2023-04-24T11:15:00;15.40;99.90
23683;DHT22;24897;53.514;10.482;2023-04-24T11:17:44;15.10;99.90
23683;DHT22;24897;53.514;10.482;2023-04-24T11:20:28;14.60;99.90
23683;DHT22;24897;53.514;10.482;2023-04-24T11:23:13;14.50;99.90
23683;DHT22;24897;53.514;10.482;2023-04-24T11:26:27;14.60;99.90
23683;DHT22;24897;53.514;10.482;2023-04-24T11:29:19;15.40;99.90
23683;DHT22;24897;53.514;10.482;2023-04-24T11:35:22;16.50;99.90
23683;DHT22;24897;53.514;10.482;2023-04-24T11:38:10;15.70;99.90
23683;DHT22;24897;53.514;10.482;2023-04-24T11:40:54;15.70;99.90
23683;DHT22;24897;53.514;10.482;2023-04-24T11:43:39;15.70;99.90
23683;DHT22;24897;53.514;10.482;2023-04-24T11:46:30;15.60;99.90
23683;DHT22;24897;53.514;10.482;2023-04-24T11:49:15;15.60;99.90
23683;DHT22;24897;53.514;10.482;2023-04-24T11:52:02;15.20;99.90
23683;DHT22;24897;53.514;10.482;2023-04-24T11:54:50;15.10;99.90
23683;DHT22;24897;53.514;10.482;2023-04-24T11:57:34;15.20;99.90
23683;DHT22;24897;53.514;10.482;2023-04-24T12:00:25;14.90;99.90
23683;DHT22;24897;53.514;10.482;2023-04-24T12:03:11;14.80;99.90
23683;DHT22;24897;53.514;10.482;2023-04-24T12:06:08;14.50;99.90
23683;DHT22;24897;53.514;10.482;2023-04-24T12:08:53;14.40;99.90
23683;DHT22;24897;53.514;10.482;2023-04-24T12:11:55;14.40;99.90
23683;DHT22;24897;53.514;10.482;2023-04-24T12:14:44;14.60;99.90
23683;DHT22;24897;53.514;10.482;2023-04-24T12:17:30;15.10;99.90
23683;DHT22;24897;53.514;10.482;2023-04-24T12:20:15;15.20;99.90
23683;DHT22;24897;53.514;10.482;2023-04-24T12:23:00;15.50;99.90
23683;DHT22;24897;53.514;10.482;2023-04-24T12:25:45;16.30;99.90
23683;DHT22;24897;53.514;10.482;2023-04-24T12:28:35;16.40;99.90
23683;DHT22;24897;53.514;10.482;2023-04-24T12:31:21;16.80;99.90
23683;DHT22;24897;53.514;10.482;2023-04-24T12:34:17;16.90;99.90
23683;DHT22;24897;53.514;10.482;2023-04-24T12:37:11;17.00;99.90
23683;DHT22;24897;53.514;10.482;2023-04-24T12:40:07;16.30;99.90
23683;DHT22;24897;53.514;10.482;2023-04-24T12:42:51;15.90;99.90
23683;DHT22;24897;53.514;10.482;2023-04-24T12:45:36;15.40;99.90
23683;DHT22;24897;53.514;10.482;2023-04-24T12:48:20;16.10;99.90
23683;DHT22;24897;53.514;10.482;2023-04-24T12:51:06;16.10;99.90
23683;DHT22;24897;53.514;10.482;2023-04-24T12:53:51;16.10;99.90
23683;DHT22;24897;53.514;10.482;2023-04-24T12:56:35;16.50;99.90
23683;DHT22;24897;53.514;10.482;2023-04-24T12:59:23;16.50;99.90
23683;DHT22;24897;53.514;10.482;2023-04-24T13:02:07;16.50;99.90
23683;DHT22;24897;53.514;10.482;2023-04-24T13:04:53;16.50;99.90
23683;DHT22;24897;53.514;10.482;2023-04-24T13:07:37;16.00;99.90
23683;DHT22;24897;53.514;10.482;2023-04-24T13:10:21;15.50;99.90
23683;DHT22;24897;53.514;10.482;2023-04-24T13:13:06;15.30;99.90
23683;DHT22;24897;53.514;10.482;2023-04-24T13:15:50;15.20;99.90
23683;DHT22;24897;53.514;10.482;2023-04-24T13:18:34;15.10;99.90
23683;DHT22;24897;53.514;10.482;2023-04-24T13:21:19;14.90;99.90
23683;DHT22;24897;53.514;10.482;2023-04-24T13:24:04;14.50;99.90
23683;DHT22;24897;53.514;10.482;2023-04-24T13:26:49;14.30;99.90
23683;DHT22;24897;53.514;10.482;2023-04-24T13:29:33;14.30;99.90
23683;DHT22;24897;53.514;10.482;2023-04-24T13:32:17;14.20;99.90
23683;DHT22;24897;53.514;10.482;2023-04-24T13:35:01;14.00;99.90
23683;DHT22;24897;53.514;10.482;2023-04-24T13:37:46;13.80;99.90
23683;DHT22;24897;53.514;10.482;2023-04-24T13:40:30;13.70;99.90
23683;DHT22;24897;53.514;10.482;2023-04-24T13:43:14;13.70;99.90
23683;DHT22;24897;53.514;10.482;2023-04-24T13:45:59;13.70;99.90
23683;DHT22;24897;53.514;10.482;2023-04-24T13:48:46;13.50;99.90
23683;DHT22;24897;53.514;10.482;2023-04-24T13:51:30;13.40;99.90
23683;DHT22;24897;53.514;10.482;2023-04-24T13:54:14;13.00;99.90
23683;DHT22;24897;53.514;10.482;2023-04-24T13:56:59;12.70;99.90
23683;DHT22;24897;53.514;10.482;2023-04-24T13:59:44;12.60;99.90
23683;DHT22;24897;53.514;10.482;2023-04-24T14:02:29;12.60;99.90
23683;DHT22;24897;53.514;10.482;2023-04-24T14:05:13;12.80;99.90
23683;DHT22;24897;53.514;10.482;2023-04-24T14:07:59;13.10;99.90
23683;DHT22;24897;53.514;10.482;2023-04-24T14:10:44;13.20;99.90
23683;DHT22;24897;53.514;10.482;2023-04-24T14:13:28;13.30;99.90
23683;DHT22;24897;53.514;10.482;2023-04-24T14:16:12;13.60;99.90
23683;DHT22;24897;53.514;10.482;2023-04-24T14:18:58;13.90;99.90
23683;DHT22;24897;53.514;10.482;2023-04-24T14:21:42;14.60;99.90
23683;DHT22;24897;53.514;10.482;2023-04-24T14:24:26;14.80;99.90
23683;DHT22;24897;53.514;10.482;2023-04-24T14:27:10;14.70;99.90
23683;DHT22;24897;53.514;10.482;2023-04-24T14:29:54;14.50;99.90
23683;DHT22;24897;53.514;10.482;2023-04-24T14:32:39;14.50;99.90
23683;DHT22;24897;53.514;10.482;2023-04-24T14:35:23;14.40;99.90
23683;DHT22;24897;53.514;10.482;2023-04-24T14:38:10;14.50;99.90
23683;DHT22;24897;53.514;10.482;2023-04-24T14:40:54;14.30;99.90
23683;DHT22;24897;53.514;10.482;2023-04-24T14:43:39;14.00;99.90
23683;DHT22;24897;53.514;10.482;2023-04-24T14:46:24;13.90;99.90
23683;DHT22;24897;53.514;10.482;2023-04-24T14:49:08;13.90;99.90
23683;DHT22;24897;53.514;10.482;2023-04-24T14:51:53;13.60;99.90
23683;DHT22;24897;53.514;10.482;2023-04-24T14:54:37;13.50;99.90
23683;DHT22;24897;53.514;10.482;2023-04-24T14:57:22;13.50;99.90
23683;DHT22;24897;53.514;10.482;2023-04-24T15:00:07;13.50;99.90
23683;DHT22;24897;53.514;10.482;2023-04-24T15:02:53;13.30;99.90
23683;DHT22;24897;53.514;10.482;2023-04-24T15:05:38;13.10;99.90
23683;DHT22;24897;53.514;10.482;2023-04-24T15:08:23;12.70;99.90
23683;DHT22;24897;53.514;10.482;2023-04-24T15:11:09;12.60;99.90
23683;DHT22;24897;53.514;10.482;2023-04-24T15:13:54;12.60;99.90
23683;DHT22;24897;53.514;10.482;2023-04-24T15:16:38;12.60;99.90
23683;DHT22;24897;53.514;10.482;2023-04-24T15:19:22;12.60;99.90
23683;DHT22;24897;53.514;10.482;2023-04-24T15:22:06;12.60;99.90
23683;DHT22;24897;53.514;10.482;2023-04-24T15:24:53;12.60;99.90
23683;DHT22;24897;53.514;10.482;2023-04-24T15:27:44;12.60;99.90
23683;DHT22;24897;53.514;10.482;2023-04-24T15:30:29;12.60;99.90
23683;DHT22;24897;53.514;10.482;2023-04-24T15:33:13;12.50;99.90
23683;DHT22;24897;53.514;10.482;2023-04-24T15:35:58;12.50;99.90
23683;DHT22;24897;53.514;10.482;2023-04-24T15:38:43;12.50;99.90
23683;DHT22;24897;53.514;10.482;2023-04-24T15:41:27;12.50;99.90
23683;DHT22;24897;53.514;10.482;2023-04-24T15:44:11;12.30;99.90
23683;DHT22;24897;53.514;10.482;2023-04-24T15:46:55;12.10;99.90
23683;DHT22;24897;53.514;10.482;2023-04-24T15:49:39;11.70;99.90
23683;DHT22;24897;53.514;10.482;2023-04-24T15:52:24;11.60;99.90
23683;DHT22;24897;53.514;10.482;2023-04-24T15:55:09;11.30;99.90
23683;DHT22;24897;53.514;10.482;2023-04-24T15:57:54;11.00;99.90
23683;DHT22;24897;53.514;10.482;2023-04-24T16:00:38;10.80;99.90
23683;DHT22;24897;53.514;10.482;2023-04-24T16:03:22;10.60;99.90
23683;DHT22;24897;53.514;10.482;2023-04-24T16:06:07;10.50;99.90
23683;DHT22;24897;53.514;10.482;2023-04-24T16:08:51;10.40;99.90
23683;DHT22;24897;53.514;10.482;2023-04-24T16:11:35;10.40;99.90
23683;DHT22;24897;53.514;10.482;2023-04-24T16:14:20;10.40;99.90
23683;DHT22;24897;53.514;10.482;2023-04-24T16:17:04;10.40;99.90
23683;DHT22;24897;53.514;10.482;2023-04-24T16:19:49;10.20;99.90
23683;DHT22;24897;53.514;10.482;2023-04-24T16:22:33;10.30;99.90
23683;DHT22;24897;53.514;10.482;2023-04-24T16:25:17;10.20;99.90
23683;DHT22;24897;53.514;10.482;2023-04-24T16:28:02;10.10;99.90
23683;DHT22;24897;53.514;10.482;2023-04-24T16:30:46;10.10;99.90
23683;DHT22;24897;53.514;10.482;2023-04-24T16:33:33;10.00;99.90
23683;DHT22;24897;53.514;10.482;2023-04-24T16:36:17;9.70;99.90
23683;DHT22;24897;53.514;10.482;2023-04-24T16:39:02;9.70;99.90
23683;DHT22;24897;53.514;10.482;2023-04-24T16:41:50;9.40;99.90
23683;DHT22;24897;53.514;10.482;2023-04-24T16:44:36;9.30;99.90
23683;DHT22;24897;53.514;10.482;2023-04-24T16:47:22;9.20;99.90
23683;DHT22;24897;53.514;10.482;2023-04-24T16:50:06;9.20;99.90
23683;DHT22;24897;53.514;10.482;2023-04-24T16:52:50;9.20;99.90
23683;DHT22;24897;53.514;10.482;2023-04-24T16:55:34;9.10;99.90
23683;DHT22;24897;53.514;10.482;2023-04-24T16:58:19;9.10;99.90
23683;DHT22;24897;53.514;10.482;2023-04-24T17:01:03;9.10;99.90
23683;DHT22;24897;53.514;10.482;2023-04-24T17:03:48;9.10;99.90
23683;DHT22;24897;53.514;10.482;2023-04-24T17:06:32;9.10;99.90
23683;DHT22;24897;53.514;10.482;2023-04-24T17:09:16;8.90;99.90
23683;DHT22;24897;53.514;10.482;2023-04-24T17:12:01;9.00;99.90
23683;DHT22;24897;53.514;10.482;2023-04-24T17:14:45;8.90;99.90
23683;DHT22;24897;53.514;10.482;2023-04-24T17:17:29;8.90;99.90
23683;DHT22;24897;53.514;10.482;2023-04-24T17:20:13;8.90;99.90